sensor_id;sensor_type;location;lat;lon;timestamp;P1;durP1;ratioP1;P2;durP2;ratioP2
6997;SDS011;3539;47.982;12.238;2023-02-12T00:00:34;10.53;;;8.30;;
6997;SDS011;3539;47.982;12.238;2023-02-12T00:03:02;13.53;;;8.70;;
6997;SDS011;3539;47.982;12.238;2023-02-12T00:05:28;9.13;;;7.73;;
6997;SDS011;3539;47.982;12.238;2023-02-12T00:07:55;11.93;;;8.83;;
6997;SDS011;3539;47.982;12.238;2023-02-12T00:10:22;11.97;;;8.77;;
6997;SDS011;3539;47.982;12.238;2023-02-12T00:12:52;10.67;;;8.40;;
6997;SDS011;3539;47.982;12.238;2023-02-12T00:15:19;12.60;;;8.67;;
6997;SDS011;3539;47.982;12.238;2023-02-12T00:17:46;13.20;;;8.67;;
6997;SDS011;3539;47.982;12.238;2023-02-12T00:20:13;10.17;;;7.93;;
6997;SDS011;3539;47.982;12.238;2023-02-12T00:22:42;11.63;;;8.50;;
6997;SDS011;3539;47.982;12.238;2023-02-12T00:25:10;11.10;;;8.07;;
6997;SDS011;3539;47.982;12.238;2023-02-12T00:27:38;11.17;;;9.00;;
6997;SDS011;3539;47.982;12.238;2023-02-12T00:30:07;13.20;;;8.80;;
6997;SDS011;3539;47.982;12.238;2023-02-12T00:32:35;10.73;;;8.90;;
6997;SDS011;3539;47.982;12.238;2023-02-12T00:35:02;13.13;;;8.80;;
6997;SDS011;3539;47.982;12.238;2023-02-12T00:37:29;13.13;;;8.80;;
6997;SDS011;3539;47.982;12.238;2023-02-12T00:39:56;10.83;;;8.60;;
6997;SDS011;3539;47.982;12.238;2023-02-12T00:42:23;12.30;;;9.03;;
6997;SDS011;3539;47.982;12.238;2023-02-12T00:44:49;12.17;;;9.17;;
6997;SDS011;3539;47.982;12.238;2023-02-12T00:47:18;14.60;;;10.17;;
6997;SDS011;3539;47.982;12.238;2023-02-12T00:49:44;16.20;;;10.87;;
6997;SDS011;3539;47.982;12.238;2023-02-12T00:52:11;16.30;;;10.43;;
6997;SDS011;3539;47.982;12.238;2023-02-12T00:54:38;13.83;;;10.10;;
6997;SDS011;3539;47.982;12.238;2023-02-12T00:57:05;14.83;;;9.93;;
6997;SDS011;3539;47.982;12.238;2023-02-12T00:59:31;16.13;;;9.53;;
6997;SDS011;3539;47.982;12.238;2023-02-12T01:02:00;11.33;;;8.83;;
6997;SDS011;3539;47.982;12.238;2023-02-12T01:04:28;12.37;;;8.37;;
6997;SDS011;3539;47.982;12.238;2023-02-12T01:06:55;11.57;;;8.80;;
6997;SDS011;3539;47.982;12.238;2023-02-12T01:09:22;11.97;;;8.10;;
6997;SDS011;3539;47.982;12.238;2023-02-12T01:11:49;12.70;;;8.73;;
6997;SDS011;3539;47.982;12.238;2023-02-12T01:14:16;11.30;;;8.70;;
6997;SDS011;3539;47.982;12.238;2023-02-12T01:16:42;11.93;;;8.17;;
6997;SDS011;3539;47.982;12.238;2023-02-12T01:19:09;13.10;;;8.47;;
6997;SDS011;3539;47.982;12.238;2023-02-12T01:21:38;13.97;;;9.07;;
6997;SDS011;3539;47.982;12.238;2023-02-12T01:24:05;11.13;;;8.10;;
6997;SDS011;3539;47.982;12.238;2023-02-12T01:26:33;11.67;;;8.83;;
6997;SDS011;3539;47.982;12.238;2023-02-12T01:29:00;11.30;;;8.37;;
6997;SDS011;3539;47.982;12.238;2023-02-12T01:31:30;12.90;;;8.63;;
6997;SDS011;3539;47.982;12.238;2023-02-12T01:33:59;12.77;;;8.87;;
6997;SDS011;3539;47.982;12.238;2023-02-12T01:36:26;11.90;;;8.63;;
6997;SDS011;3539;47.982;12.238;2023-02-12T01:38:55;12.93;;;9.30;;
6997;SDS011;3539;47.982;12.238;2023-02-12T01:41:24;11.60;;;9.20;;
6997;SDS011;3539;47.982;12.238;2023-02-12T01:44:04;11.87;;;8.50;;
6997;SDS011;3539;47.982;12.238;2023-02-12T01:46:36;12.87;;;8.70;;
6997;SDS011;3539;47.982;12.238;2023-02-12T01:49:03;13.07;;;9.37;;
6997;SDS011;3539;47.982;12.238;2023-02-12T01:51:31;10.07;;;8.33;;
6997;SDS011;3539;47.982;12.238;2023-02-12T01:54:00;13.63;;;9.67;;
6997;SDS011;3539;47.982;12.238;2023-02-12T01:56:30;13.37;;;9.40;;
6997;SDS011;3539;47.982;12.238;2023-02-12T01:58:59;12.97;;;8.77;;
6997;SDS011;3539;47.982;12.238;2023-02-12T02:01:27;13.73;;;9.53;;
6997;SDS011;3539;47.982;12.238;2023-02-12T02:03:56;10.73;;;8.80;;
6997;SDS011;3539;47.982;12.238;2023-02-12T02:06:26;11.43;;;8.80;;
6997;SDS011;3539;47.982;12.238;2023-02-12T02:08:55;11.43;;;8.57;;
6997;SDS011;3539;47.982;12.238;2023-02-12T02:11:27;13.50;;;8.93;;
6997;SDS011;3539;47.982;12.238;2023-02-12T02:14:11;11.17;;;8.43;;
6997;SDS011;3539;47.982;12.238;2023-02-12T02:16:58;11.00;;;7.97;;
6997;SDS011;3539;47.982;12.238;2023-02-12T02:19:34;11.43;;;9.00;;
6997;SDS011;3539;47.982;12.238;2023-02-12T02:22:19;12.83;;;8.90;;
6997;SDS011;3539;47.982;12.238;2023-02-12T02:24:52;15.13;;;8.90;;
6997;SDS011;3539;47.982;12.238;2023-02-12T02:27:34;11.47;;;8.93;;
6997;SDS011;3539;47.982;12.238;2023-02-12T02:30:27;12.77;;;9.53;;
6997;SDS011;3539;47.982;12.238;2023-02-12T02:33:02;12.93;;;9.17;;
6997;SDS011;3539;47.982;12.238;2023-02-12T02:35:46;11.60;;;9.17;;
6997;SDS011;3539;47.982;12.238;2023-02-12T02:38:23;11.27;;;8.33;;
6997;SDS011;3539;47.982;12.238;2023-02-12T02:40:57;11.93;;;8.17;;
6997;SDS011;3539;47.982;12.238;2023-02-12T02:43:28;12.20;;;8.60;;
6997;SDS011;3539;47.982;12.238;2023-02-12T02:46:00;12.60;;;8.60;;
6997;SDS011;3539;47.982;12.238;2023-02-12T02:48:33;11.17;;;7.97;;
6997;SDS011;3539;47.982;12.238;2023-02-12T02:51:03;10.83;;;8.03;;
6997;SDS011;3539;47.982;12.238;2023-02-12T02:53:32;11.77;;;8.00;;
6997;SDS011;3539;47.982;12.238;2023-02-12T02:56:02;10.50;;;8.23;;
6997;SDS011;3539;47.982;12.238;2023-02-12T02:58:34;11.63;;;8.40;;
6997;SDS011;3539;47.982;12.238;2023-02-12T03:01:03;12.60;;;8.63;;
6997;SDS011;3539;47.982;12.238;2023-02-12T03:03:33;13.60;;;9.07;;
6997;SDS011;3539;47.982;12.238;2023-02-12T03:06:03;13.63;;;8.93;;
6997;SDS011;3539;47.982;12.238;2023-02-12T03:08:34;11.70;;;8.73;;
6997;SDS011;3539;47.982;12.238;2023-02-12T03:11:04;12.50;;;8.63;;
6997;SDS011;3539;47.982;12.238;2023-02-12T03:13:36;9.27;;;7.63;;
6997;SDS011;3539;47.982;12.238;2023-02-12T03:16:06;10.53;;;8.03;;
6997;SDS011;3539;47.982;12.238;2023-02-12T03:18:38;11.70;;;8.00;;
6997;SDS011;3539;47.982;12.238;2023-02-12T03:21:08;9.53;;;7.83;;
6997;SDS011;3539;47.982;12.238;2023-02-12T03:23:38;12.23;;;8.90;;
6997;SDS011;3539;47.982;12.238;2023-02-12T03:26:08;11.73;;;8.47;;
6997;SDS011;3539;47.982;12.238;2023-02-12T03:28:38;12.13;;;8.03;;
6997;SDS011;3539;47.982;12.238;2023-02-12T03:31:09;9.77;;;8.33;;
6997;SDS011;3539;47.982;12.238;2023-02-12T03:33:41;11.97;;;8.37;;
6997;SDS011;3539;47.982;12.238;2023-02-12T03:36:13;12.13;;;8.27;;
6997;SDS011;3539;47.982;12.238;2023-02-12T03:38:47;10.30;;;7.93;;
6997;SDS011;3539;47.982;12.238;2023-02-12T03:41:17;11.27;;;8.67;;
6997;SDS011;3539;47.982;12.238;2023-02-12T03:43:47;13.30;;;8.53;;
6997;SDS011;3539;47.982;12.238;2023-02-12T03:46:18;10.73;;;8.10;;
6997;SDS011;3539;47.982;12.238;2023-02-12T03:48:48;13.20;;;9.23;;
6997;SDS011;3539;47.982;12.238;2023-02-12T03:51:22;12.17;;;8.50;;
6997;SDS011;3539;47.982;12.238;2023-02-12T03:53:53;10.63;;;8.17;;
6997;SDS011;3539;47.982;12.238;2023-02-12T03:56:21;10.93;;;8.33;;
6997;SDS011;3539;47.982;12.238;2023-02-12T03:58:49;11.37;;;8.10;;
6997;SDS011;3539;47.982;12.238;2023-02-12T04:01:17;10.87;;;7.97;;
6997;SDS011;3539;47.982;12.238;2023-02-12T04:03:44;10.63;;;8.77;;
6997;SDS011;3539;47.982;12.238;2023-02-12T04:06:18;11.73;;;8.17;;
6997;SDS011;3539;47.982;12.238;2023-02-12T04:08:46;12.60;;;8.60;;
6997;SDS011;3539;47.982;12.238;2023-02-12T04:11:16;10.43;;;8.37;;
6997;SDS011;3539;47.982;12.238;2023-02-12T04:13:51;11.90;;;8.83;;
6997;SDS011;3539;47.982;12.238;2023-02-12T04:16:28;11.13;;;8.40;;
6997;SDS011;3539;47.982;12.238;2023-02-12T04:18:58;11.50;;;8.13;;
6997;SDS011;3539;47.982;12.238;2023-02-12T04:21:31;9.73;;;8.27;;
6997;SDS011;3539;47.982;12.238;2023-02-12T04:24:08;11.97;;;8.20;;
6997;SDS011;3539;47.982;12.238;2023-02-12T04:26:53;11.73;;;8.37;;
6997;SDS011;3539;47.982;12.238;2023-02-12T04:29:24;13.40;;;8.87;;
6997;SDS011;3539;47.982;12.238;2023-02-12T04:31:56;11.97;;;8.97;;
6997;SDS011;3539;47.982;12.238;2023-02-12T04:34:28;11.80;;;8.23;;
6997;SDS011;3539;47.982;12.238;2023-02-12T04:36:59;12.07;;;8.13;;
6997;SDS011;3539;47.982;12.238;2023-02-12T04:39:30;11.60;;;8.20;;
6997;SDS011;3539;47.982;12.238;2023-02-12T04:42:00;11.07;;;8.03;;
6997;SDS011;3539;47.982;12.238;2023-02-12T04:44:28;10.27;;;8.43;;
6997;SDS011;3539;47.982;12.238;2023-02-12T04:46:57;11.37;;;8.70;;
6997;SDS011;3539;47.982;12.238;2023-02-12T04:49:24;11.13;;;8.23;;
6997;SDS011;3539;47.982;12.238;2023-02-12T04:51:51;12.40;;;8.27;;
6997;SDS011;3539;47.982;12.238;2023-02-12T04:54:19;11.87;;;8.10;;
6997;SDS011;3539;47.982;12.238;2023-02-12T04:56:47;11.23;;;8.50;;
6997;SDS011;3539;47.982;12.238;2023-02-12T04:59:14;11.50;;;8.67;;
6997;SDS011;3539;47.982;12.238;2023-02-12T05:01:41;12.90;;;8.03;;
6997;SDS011;3539;47.982;12.238;2023-02-12T05:04:11;10.27;;;7.93;;
6997;SDS011;3539;47.982;12.238;2023-02-12T05:06:39;13.67;;;8.27;;
6997;SDS011;3539;47.982;12.238;2023-02-12T05:09:06;11.13;;;8.43;;
6997;SDS011;3539;47.982;12.238;2023-02-12T05:11:34;10.40;;;7.80;;
6997;SDS011;3539;47.982;12.238;2023-02-12T05:14:01;12.10;;;8.73;;
6997;SDS011;3539;47.982;12.238;2023-02-12T05:16:28;12.33;;;8.57;;
6997;SDS011;3539;47.982;12.238;2023-02-12T05:18:55;12.27;;;8.60;;
6997;SDS011;3539;47.982;12.238;2023-02-12T05:21:23;11.67;;;8.37;;
6997;SDS011;3539;47.982;12.238;2023-02-12T05:23:50;12.20;;;8.80;;
6997;SDS011;3539;47.982;12.238;2023-02-12T05:26:18;11.60;;;8.63;;
6997;SDS011;3539;47.982;12.238;2023-02-12T05:28:46;10.80;;;7.80;;
6997;SDS011;3539;47.982;12.238;2023-02-12T05:31:13;12.20;;;8.77;;
6997;SDS011;3539;47.982;12.238;2023-02-12T05:33:42;11.97;;;8.40;;
6997;SDS011;3539;47.982;12.238;2023-02-12T05:36:10;12.67;;;8.67;;
6997;SDS011;3539;47.982;12.238;2023-02-12T05:38:39;10.83;;;8.27;;
6997;SDS011;3539;47.982;12.238;2023-02-12T05:41:07;11.53;;;8.47;;
6997;SDS011;3539;47.982;12.238;2023-02-12T05:43:35;11.83;;;8.40;;
6997;SDS011;3539;47.982;12.238;2023-02-12T05:46:03;13.87;;;9.60;;
6997;SDS011;3539;47.982;12.238;2023-02-12T05:48:31;10.90;;;9.03;;
6997;SDS011;3539;47.982;12.238;2023-02-12T05:51:02;10.97;;;8.40;;
6997;SDS011;3539;47.982;12.238;2023-02-12T05:53:29;11.90;;;8.97;;
6997;SDS011;3539;47.982;12.238;2023-02-12T05:56:07;11.07;;;9.13;;
6997;SDS011;3539;47.982;12.238;2023-02-12T05:58:35;10.70;;;8.53;;
6997;SDS011;3539;47.982;12.238;2023-02-12T06:01:07;13.33;;;8.80;;
6997;SDS011;3539;47.982;12.238;2023-02-12T06:03:37;10.37;;;8.37;;
6997;SDS011;3539;47.982;12.238;2023-02-12T06:06:04;11.77;;;8.60;;
6997;SDS011;3539;47.982;12.238;2023-02-12T06:08:31;11.23;;;8.70;;
6997;SDS011;3539;47.982;12.238;2023-02-12T06:10:59;11.47;;;8.87;;
6997;SDS011;3539;47.982;12.238;2023-02-12T06:13:28;14.13;;;10.23;;
6997;SDS011;3539;47.982;12.238;2023-02-12T06:15:55;11.57;;;8.30;;
6997;SDS011;3539;47.982;12.238;2023-02-12T06:18:22;12.17;;;9.03;;
6997;SDS011;3539;47.982;12.238;2023-02-12T06:20:51;11.03;;;8.50;;
6997;SDS011;3539;47.982;12.238;2023-02-12T06:23:19;12.57;;;8.73;;
6997;SDS011;3539;47.982;12.238;2023-02-12T06:25:50;10.97;;;8.40;;
6997;SDS011;3539;47.982;12.238;2023-02-12T06:28:17;12.43;;;8.50;;
6997;SDS011;3539;47.982;12.238;2023-02-12T06:30:45;10.73;;;8.97;;
6997;SDS011;3539;47.982;12.238;2023-02-12T06:33:12;10.73;;;8.23;;
6997;SDS011;3539;47.982;12.238;2023-02-12T06:35:39;11.53;;;8.67;;
6997;SDS011;3539;47.982;12.238;2023-02-12T06:38:06;12.30;;;8.13;;
6997;SDS011;3539;47.982;12.238;2023-02-12T06:40:33;10.47;;;8.27;;
6997;SDS011;3539;47.982;12.238;2023-02-12T06:43:00;11.77;;;9.23;;
6997;SDS011;3539;47.982;12.238;2023-02-12T06:45:26;11.93;;;8.37;;
6997;SDS011;3539;47.982;12.238;2023-02-12T06:47:55;11.60;;;8.60;;
6997;SDS011;3539;47.982;12.238;2023-02-12T06:50:23;13.97;;;9.17;;
6997;SDS011;3539;47.982;12.238;2023-02-12T06:52:50;13.93;;;8.97;;
6997;SDS011;3539;47.982;12.238;2023-02-12T06:55:17;13.00;;;9.77;;
6997;SDS011;3539;47.982;12.238;2023-02-12T06:57:44;12.40;;;9.70;;
6997;SDS011;3539;47.982;12.238;2023-02-12T07:00:11;12.40;;;10.10;;
6997;SDS011;3539;47.982;12.238;2023-02-12T07:02:38;13.97;;;10.30;;
6997;SDS011;3539;47.982;12.238;2023-02-12T07:05:07;15.03;;;9.67;;
6997;SDS011;3539;47.982;12.238;2023-02-12T07:07:34;14.23;;;9.60;;
6997;SDS011;3539;47.982;12.238;2023-02-12T07:10:01;12.57;;;9.40;;
6997;SDS011;3539;47.982;12.238;2023-02-12T07:12:28;13.17;;;9.23;;
6997;SDS011;3539;47.982;12.238;2023-02-12T07:14:55;13.40;;;9.20;;
6997;SDS011;3539;47.982;12.238;2023-02-12T07:17:22;12.13;;;10.00;;
6997;SDS011;3539;47.982;12.238;2023-02-12T07:19:48;12.00;;;9.30;;
6997;SDS011;3539;47.982;12.238;2023-02-12T07:22:16;15.30;;;10.13;;
6997;SDS011;3539;47.982;12.238;2023-02-12T07:24:45;13.17;;;10.40;;
6997;SDS011;3539;47.982;12.238;2023-02-12T07:27:12;13.30;;;9.80;;
6997;SDS011;3539;47.982;12.238;2023-02-12T07:29:39;14.07;;;9.30;;
6997;SDS011;3539;47.982;12.238;2023-02-12T07:32:06;14.53;;;9.00;;
6997;SDS011;3539;47.982;12.238;2023-02-12T07:34:33;12.23;;;9.13;;
6997;SDS011;3539;47.982;12.238;2023-02-12T07:36:59;12.07;;;9.00;;
6997;SDS011;3539;47.982;12.238;2023-02-12T07:39:28;12.27;;;9.40;;
6997;SDS011;3539;47.982;12.238;2023-02-12T07:41:54;13.93;;;10.00;;
6997;SDS011;3539;47.982;12.238;2023-02-12T07:44:22;13.13;;;9.80;;
6997;SDS011;3539;47.982;12.238;2023-02-12T07:46:48;13.53;;;10.00;;
6997;SDS011;3539;47.982;12.238;2023-02-12T07:49:16;17.77;;;11.20;;
6997;SDS011;3539;47.982;12.238;2023-02-12T07:51:44;62.03;;;29.33;;
6997;SDS011;3539;47.982;12.238;2023-02-12T07:54:11;71.93;;;31.60;;
6997;SDS011;3539;47.982;12.238;2023-02-12T07:56:41;90.40;;;38.37;;
6997;SDS011;3539;47.982;12.238;2023-02-12T07:59:11;71.03;;;32.43;;
6997;SDS011;3539;47.982;12.238;2023-02-12T08:01:39;62.90;;;31.43;;
6997;SDS011;3539;47.982;12.238;2023-02-12T08:04:08;37.50;;;22.00;;
6997;SDS011;3539;47.982;12.238;2023-02-12T08:06:36;22.97;;;14.50;;
6997;SDS011;3539;47.982;12.238;2023-02-12T08:09:05;15.80;;;10.93;;
6997;SDS011;3539;47.982;12.238;2023-02-12T08:11:35;12.80;;;8.97;;
6997;SDS011;3539;47.982;12.238;2023-02-12T08:14:04;10.60;;;8.43;;
6997;SDS011;3539;47.982;12.238;2023-02-12T08:16:34;12.10;;;8.33;;
6997;SDS011;3539;47.982;12.238;2023-02-12T08:19:02;11.80;;;8.87;;
6997;SDS011;3539;47.982;12.238;2023-02-12T08:21:29;16.30;;;8.33;;
6997;SDS011;3539;47.982;12.238;2023-02-12T08:23:56;12.23;;;7.87;;
6997;SDS011;3539;47.982;12.238;2023-02-12T08:26:24;7.73;;;6.93;;
6997;SDS011;3539;47.982;12.238;2023-02-12T08:28:55;11.97;;;7.60;;
6997;SDS011;3539;47.982;12.238;2023-02-12T08:31:26;12.37;;;8.10;;
6997;SDS011;3539;47.982;12.238;2023-02-12T08:33:54;10.97;;;8.57;;
6997;SDS011;3539;47.982;12.238;2023-02-12T08:36:21;12.80;;;8.93;;
6997;SDS011;3539;47.982;12.238;2023-02-12T08:38:49;11.67;;;9.63;;
6997;SDS011;3539;47.982;12.238;2023-02-12T08:41:17;13.23;;;9.17;;
6997;SDS011;3539;47.982;12.238;2023-02-12T08:43:44;11.17;;;9.03;;
6997;SDS011;3539;47.982;12.238;2023-02-12T08:46:14;10.77;;;8.77;;
6997;SDS011;3539;47.982;12.238;2023-02-12T08:48:45;11.47;;;8.37;;
6997;SDS011;3539;47.982;12.238;2023-02-12T08:51:13;11.70;;;8.13;;
6997;SDS011;3539;47.982;12.238;2023-02-12T08:53:41;11.37;;;9.03;;
6997;SDS011;3539;47.982;12.238;2023-02-12T08:56:10;12.07;;;8.67;;
6997;SDS011;3539;47.982;12.238;2023-02-12T08:58:37;15.17;;;12.83;;
6997;SDS011;3539;47.982;12.238;2023-02-12T09:01:04;11.90;;;9.30;;
6997;SDS011;3539;47.982;12.238;2023-02-12T09:03:35;12.07;;;9.13;;
6997;SDS011;3539;47.982;12.238;2023-02-12T09:06:04;12.07;;;9.27;;
6997;SDS011;3539;47.982;12.238;2023-02-12T09:08:32;12.57;;;9.43;;
6997;SDS011;3539;47.982;12.238;2023-02-12T09:10:59;11.10;;;8.40;;
6997;SDS011;3539;47.982;12.238;2023-02-12T09:13:30;11.63;;;8.60;;
6997;SDS011;3539;47.982;12.238;2023-02-12T09:15:58;12.77;;;8.87;;
6997;SDS011;3539;47.982;12.238;2023-02-12T09:18:26;13.80;;;9.00;;
6997;SDS011;3539;47.982;12.238;2023-02-12T09:20:54;14.93;;;10.20;;
6997;SDS011;3539;47.982;12.238;2023-02-12T09:23:22;16.50;;;10.13;;
6997;SDS011;3539;47.982;12.238;2023-02-12T09:25:49;14.27;;;10.57;;
6997;SDS011;3539;47.982;12.238;2023-02-12T09:28:16;15.77;;;10.90;;
6997;SDS011;3539;47.982;12.238;2023-02-12T09:30:42;14.60;;;9.90;;
6997;SDS011;3539;47.982;12.238;2023-02-12T09:33:10;13.67;;;9.80;;
6997;SDS011;3539;47.982;12.238;2023-02-12T09:35:37;15.30;;;10.90;;
6997;SDS011;3539;47.982;12.238;2023-02-12T09:38:05;13.70;;;10.53;;
6997;SDS011;3539;47.982;12.238;2023-02-12T09:40:37;17.13;;;12.83;;
6997;SDS011;3539;47.982;12.238;2023-02-12T09:43:09;13.13;;;9.63;;
6997;SDS011;3539;47.982;12.238;2023-02-12T09:45:43;15.57;;;10.73;;
6997;SDS011;3539;47.982;12.238;2023-02-12T09:48:22;16.33;;;11.50;;
6997;SDS011;3539;47.982;12.238;2023-02-12T09:51:03;17.40;;;12.50;;
6997;SDS011;3539;47.982;12.238;2023-02-12T09:53:33;21.23;;;15.27;;
6997;SDS011;3539;47.982;12.238;2023-02-12T09:56:04;19.83;;;14.43;;
6997;SDS011;3539;47.982;12.238;2023-02-12T09:58:37;20.83;;;14.50;;
6997;SDS011;3539;47.982;12.238;2023-02-12T10:01:09;16.03;;;12.80;;
6997;SDS011;3539;47.982;12.238;2023-02-12T10:03:37;18.97;;;13.37;;
6997;SDS011;3539;47.982;12.238;2023-02-12T10:06:04;18.17;;;13.33;;
6997;SDS011;3539;47.982;12.238;2023-02-12T10:11:29;15.07;;;10.17;;
6997;SDS011;3539;47.982;12.238;2023-02-12T10:20:00;16.40;;;10.57;;
6997;SDS011;3539;47.982;12.238;2023-02-12T10:23:06;15.30;;;10.63;;
6997;SDS011;3539;47.982;12.238;2023-02-12T10:25:43;14.33;;;10.47;;
6997;SDS011;3539;47.982;12.238;2023-02-12T10:28:16;18.40;;;12.93;;
6997;SDS011;3539;47.982;12.238;2023-02-12T10:30:47;21.27;;;13.13;;
6997;SDS011;3539;47.982;12.238;2023-02-12T10:33:16;16.03;;;10.83;;
6997;SDS011;3539;47.982;12.238;2023-02-12T10:35:47;12.93;;;10.00;;
6997;SDS011;3539;47.982;12.238;2023-02-12T10:38:17;14.90;;;10.07;;
6997;SDS011;3539;47.982;12.238;2023-02-12T10:40:46;11.90;;;8.47;;
6997;SDS011;3539;47.982;12.238;2023-02-12T10:43:23;11.50;;;8.40;;
6997;SDS011;3539;47.982;12.238;2023-02-12T10:45:51;13.07;;;8.20;;
6997;SDS011;3539;47.982;12.238;2023-02-12T10:48:29;11.73;;;8.37;;
6997;SDS011;3539;47.982;12.238;2023-02-12T10:54:36;6.60;;;4.97;;
6997;SDS011;3539;47.982;12.238;2023-02-12T10:57:44;8.17;;;5.97;;
6997;SDS011;3539;47.982;12.238;2023-02-12T11:00:22;9.27;;;7.43;;
6997;SDS011;3539;47.982;12.238;2023-02-12T11:02:59;11.07;;;6.00;;
6997;SDS011;3539;47.982;12.238;2023-02-12T11:05:46;6.27;;;5.33;;
6997;SDS011;3539;47.982;12.238;2023-02-12T11:08:27;9.23;;;5.43;;
6997;SDS011;3539;47.982;12.238;2023-02-12T11:11:02;6.67;;;5.23;;
6997;SDS011;3539;47.982;12.238;2023-02-12T11:13:31;5.93;;;5.00;;
6997;SDS011;3539;47.982;12.238;2023-02-12T11:16:00;6.53;;;5.27;;
6997;SDS011;3539;47.982;12.238;2023-02-12T11:18:31;7.20;;;5.70;;
6997;SDS011;3539;47.982;12.238;2023-02-12T11:21:02;8.80;;;6.17;;
6997;SDS011;3539;47.982;12.238;2023-02-12T11:23:34;8.43;;;6.60;;
6997;SDS011;3539;47.982;12.238;2023-02-12T11:26:24;7.57;;;4.70;;
6997;SDS011;3539;47.982;12.238;2023-02-12T11:28:54;7.57;;;5.20;;
6997;SDS011;3539;47.982;12.238;2023-02-12T11:31:24;4.73;;;4.23;;
6997;SDS011;3539;47.982;12.238;2023-02-12T11:34:05;5.23;;;3.60;;
6997;SDS011;3539;47.982;12.238;2023-02-12T11:36:34;3.53;;;3.17;;
6997;SDS011;3539;47.982;12.238;2023-02-12T11:39:03;5.17;;;4.07;;
6997;SDS011;3539;47.982;12.238;2023-02-12T11:41:32;5.93;;;4.10;;
6997;SDS011;3539;47.982;12.238;2023-02-12T11:44:07;7.73;;;3.87;;
6997;SDS011;3539;47.982;12.238;2023-02-12T11:46:36;4.97;;;3.77;;
6997;SDS011;3539;47.982;12.238;2023-02-12T11:49:03;5.43;;;4.13;;
6997;SDS011;3539;47.982;12.238;2023-02-12T11:51:30;4.13;;;3.53;;
6997;SDS011;3539;47.982;12.238;2023-02-12T11:53:58;6.07;;;4.60;;
6997;SDS011;3539;47.982;12.238;2023-02-12T11:56:38;4.17;;;3.77;;
6997;SDS011;3539;47.982;12.238;2023-02-12T11:59:08;4.50;;;4.07;;
6997;SDS011;3539;47.982;12.238;2023-02-12T12:01:39;6.13;;;4.50;;
6997;SDS011;3539;47.982;12.238;2023-02-12T12:04:07;6.70;;;5.60;;
6997;SDS011;3539;47.982;12.238;2023-02-12T12:06:36;6.90;;;5.13;;
6997;SDS011;3539;47.982;12.238;2023-02-12T12:09:08;7.30;;;5.30;;
6997;SDS011;3539;47.982;12.238;2023-02-12T12:11:44;7.20;;;4.67;;
6997;SDS011;3539;47.982;12.238;2023-02-12T12:14:15;7.33;;;4.10;;
6997;SDS011;3539;47.982;12.238;2023-02-12T12:16:49;5.30;;;4.07;;
6997;SDS011;3539;47.982;12.238;2023-02-12T12:19:37;4.30;;;3.37;;
6997;SDS011;3539;47.982;12.238;2023-02-12T12:22:27;4.70;;;3.73;;
6997;SDS011;3539;47.982;12.238;2023-02-12T12:25:04;4.20;;;3.63;;
6997;SDS011;3539;47.982;12.238;2023-02-12T12:27:39;4.63;;;3.60;;
6997;SDS011;3539;47.982;12.238;2023-02-12T12:30:40;4.03;;;2.97;;
6997;SDS011;3539;47.982;12.238;2023-02-12T12:33:18;4.37;;;3.47;;
6997;SDS011;3539;47.982;12.238;2023-02-12T12:35:55;4.67;;;3.63;;
6997;SDS011;3539;47.982;12.238;2023-02-12T12:38:37;4.97;;;3.60;;
6997;SDS011;3539;47.982;12.238;2023-02-12T12:41:12;4.53;;;3.30;;
6997;SDS011;3539;47.982;12.238;2023-02-12T12:43:48;4.50;;;3.37;;
6997;SDS011;3539;47.982;12.238;2023-02-12T12:46:23;6.60;;;4.40;;
6997;SDS011;3539;47.982;12.238;2023-02-12T12:49:12;4.50;;;4.03;;
6997;SDS011;3539;47.982;12.238;2023-02-12T12:51:57;6.83;;;4.00;;
6997;SDS011;3539;47.982;12.238;2023-02-12T12:54:36;5.33;;;3.90;;
6997;SDS011;3539;47.982;12.238;2023-02-12T12:57:12;5.77;;;4.53;;
6997;SDS011;3539;47.982;12.238;2023-02-12T12:59:46;5.47;;;4.37;;
6997;SDS011;3539;47.982;12.238;2023-02-12T13:05:35;6.93;;;5.20;;
6997;SDS011;3539;47.982;12.238;2023-02-12T13:08:29;6.33;;;5.30;;
6997;SDS011;3539;47.982;12.238;2023-02-12T13:11:22;6.90;;;5.17;;
6997;SDS011;3539;47.982;12.238;2023-02-12T13:14:00;7.13;;;4.93;;
6997;SDS011;3539;47.982;12.238;2023-02-12T13:16:34;6.67;;;5.00;;
6997;SDS011;3539;47.982;12.238;2023-02-12T13:19:11;6.80;;;5.53;;
6997;SDS011;3539;47.982;12.238;2023-02-12T13:21:46;6.23;;;4.43;;
6997;SDS011;3539;47.982;12.238;2023-02-12T13:24:21;6.60;;;5.00;;
6997;SDS011;3539;47.982;12.238;2023-02-12T13:26:51;7.97;;;5.70;;
6997;SDS011;3539;47.982;12.238;2023-02-12T13:29:22;8.30;;;6.20;;
6997;SDS011;3539;47.982;12.238;2023-02-12T13:31:53;10.57;;;7.47;;
6997;SDS011;3539;47.982;12.238;2023-02-12T13:34:23;10.93;;;7.43;;
6997;SDS011;3539;47.982;12.238;2023-02-12T13:36:54;7.60;;;6.27;;
6997;SDS011;3539;47.982;12.238;2023-02-12T13:39:23;11.37;;;8.30;;
6997;SDS011;3539;47.982;12.238;2023-02-12T13:41:57;15.93;;;9.73;;
6997;SDS011;3539;47.982;12.238;2023-02-12T13:44:31;11.83;;;8.93;;
6997;SDS011;3539;47.982;12.238;2023-02-12T13:47:05;11.97;;;7.43;;
6997;SDS011;3539;47.982;12.238;2023-02-12T13:49:38;10.90;;;7.40;;
6997;SDS011;3539;47.982;12.238;2023-02-12T13:52:09;9.90;;;6.60;;
6997;SDS011;3539;47.982;12.238;2023-02-12T13:54:45;20.10;;;11.30;;
6997;SDS011;3539;47.982;12.238;2023-02-12T13:57:15;16.80;;;10.73;;
6997;SDS011;3539;47.982;12.238;2023-02-12T13:59:44;7.93;;;5.73;;
6997;SDS011;3539;47.982;12.238;2023-02-12T14:07:57;7.33;;;5.00;;
6997;SDS011;3539;47.982;12.238;2023-02-12T14:10:27;9.00;;;5.77;;
6997;SDS011;3539;47.982;12.238;2023-02-12T14:12:58;11.53;;;7.50;;
6997;SDS011;3539;47.982;12.238;2023-02-12T14:15:36;7.60;;;5.43;;
6997;SDS011;3539;47.982;12.238;2023-02-12T14:27:32;9.03;;;6.40;;
6997;SDS011;3539;47.982;12.238;2023-02-12T14:30:20;8.90;;;6.03;;
6997;SDS011;3539;47.982;12.238;2023-02-12T14:32:59;8.20;;;6.77;;
6997;SDS011;3539;47.982;12.238;2023-02-12T14:35:36;8.50;;;6.70;;
6997;SDS011;3539;47.982;12.238;2023-02-12T14:38:55;8.27;;;6.50;;
6997;SDS011;3539;47.982;12.238;2023-02-12T14:41:27;12.57;;;9.27;;
6997;SDS011;3539;47.982;12.238;2023-02-12T14:47:11;9.43;;;6.47;;
6997;SDS011;3539;47.982;12.238;2023-02-12T14:49:53;9.30;;;6.00;;
6997;SDS011;3539;47.982;12.238;2023-02-12T14:52:23;8.73;;;6.80;;
6997;SDS011;3539;47.982;12.238;2023-02-12T14:54:53;9.97;;;6.50;;
6997;SDS011;3539;47.982;12.238;2023-02-12T14:57:23;9.40;;;6.53;;
6997;SDS011;3539;47.982;12.238;2023-02-12T14:59:51;8.80;;;6.63;;
6997;SDS011;3539;47.982;12.238;2023-02-12T15:02:23;8.77;;;6.43;;
6997;SDS011;3539;47.982;12.238;2023-02-12T15:04:52;7.10;;;5.87;;
6997;SDS011;3539;47.982;12.238;2023-02-12T15:07:23;8.80;;;6.03;;
6997;SDS011;3539;47.982;12.238;2023-02-12T15:09:55;7.43;;;5.80;;
6997;SDS011;3539;47.982;12.238;2023-02-12T15:12:26;7.80;;;6.03;;
6997;SDS011;3539;47.982;12.238;2023-02-12T15:15:00;6.80;;;5.73;;
6997;SDS011;3539;47.982;12.238;2023-02-12T15:17:33;7.77;;;6.10;;
6997;SDS011;3539;47.982;12.238;2023-02-12T15:20:03;8.77;;;5.73;;
6997;SDS011;3539;47.982;12.238;2023-02-12T15:22:33;9.03;;;6.70;;
6997;SDS011;3539;47.982;12.238;2023-02-12T15:25:15;8.07;;;6.80;;
6997;SDS011;3539;47.982;12.238;2023-02-12T15:27:43;9.43;;;7.07;;
6997;SDS011;3539;47.982;12.238;2023-02-12T15:30:13;9.93;;;7.53;;
6997;SDS011;3539;47.982;12.238;2023-02-12T15:32:46;10.90;;;7.53;;
6997;SDS011;3539;47.982;12.238;2023-02-12T15:35:21;10.13;;;7.17;;
6997;SDS011;3539;47.982;12.238;2023-02-12T15:37:50;8.07;;;6.17;;
6997;SDS011;3539;47.982;12.238;2023-02-12T15:40:17;10.87;;;7.53;;
6997;SDS011;3539;47.982;12.238;2023-02-12T15:42:51;11.90;;;8.10;;
6997;SDS011;3539;47.982;12.238;2023-02-12T15:45:20;11.53;;;8.23;;
6997;SDS011;3539;47.982;12.238;2023-02-12T15:47:58;11.87;;;9.13;;